Terminal Aerodrome Forecast
Issued by NWS

Home | Current Version | Previous Version | Text Only | Print | Product List | Glossary On
Versions: 1 2 3 4 5 6 7 8 9 10 11 12 13
897
FTUS43 KGRR 222340
TAFJXN
TAF
KJXN 222340Z 2300/2324 17009KT P6SM OVC060 WS020/20035KT
     FM230700 19006KT 4SM -SHRA BR OVC035
     FM230900 19006KT 4SM -RA BR OVC009
     FM231600 17005KT 2SM -RA BR OVC005
     FM231800 15006KT 1 1/2SM RA BR OVC004=

USA.gov is the U.S. government's official web portal to all federal, state and local government web resources and services.